Time;durP1;ratioP1;P1;durP2;ratioP2;P2;SDS_P1;SDS_P2;PMS_P1;PMS_P2;Temp;Humidity;BMP_temperature;BMP_pressure;BME280_temperature;BME280_humidity;BME280_pressure;Samples;Min_cycle;Max_cycle;Signal;HPM_P1;HPM_P2
2022/08/29 00:00:37;;;;;;;0.82;0.40;;;17.50;99.90;;;;;;5033960;28;20238;-58
2022/08/29 00:03:05;;;;;;;0.30;0.30;;;17.50;99.90;;;;;;5034002;28;20183;-58
2022/08/29 00:05:33;;;;;;;0.40;0.40;;;17.50;99.90;;;;;;5034034;28;20271;-59
2022/08/29 00:08:01;;;;;;;0.63;0.40;;;17.50;99.90;;;;;;5033770;28;20236;-55
2022/08/29 00:10:29;;;;;;;0.75;0.50;;;17.50;99.90;;;;;;5049041;28;20526;-58
2022/08/29 00:12:54;;;;;;;0.88;0.60;;;17.50;99.90;;;;;;5033598;28;20218;-57
2022/08/29 00:15:21;;;;;;;0.50;0.50;;;17.40;99.90;;;;;;5034006;28;20529;-58
2022/08/29 00:17:47;;;;;;;0.47;0.47;;;17.30;99.90;;;;;;5049162;28;20549;-58
2022/08/29 00:20:20;;;;;;;0.60;0.60;;;17.20;99.90;;;;;;5033743;28;20168;-57
2022/08/29 00:22:46;;;;;;;0.93;0.40;;;17.10;99.90;;;;;;5033570;28;20330;-58
2022/08/29 00:25:14;;;;;;;0.45;0.45;;;17.20;99.90;;;;;;5032570;28;20231;-57
2022/08/29 00:27:40;;;;;;;0.35;0.30;;;17.30;99.90;;;;;;5033516;28;20176;-58
2022/08/29 00:30:07;;;;;;;0.40;0.40;;;17.30;99.90;;;;;;5032511;28;20184;-58
2022/08/29 00:32:35;;;;;;;0.70;0.52;;;17.30;99.90;;;;;;5032144;28;20204;-58
2022/08/29 00:35:08;;;;;;;0.40;0.40;;;17.30;99.90;;;;;;5032235;28;20186;-58
2022/08/29 00:37:34;;;;;;;0.57;0.50;;;17.30;99.90;;;;;;5033393;28;20536;-58
2022/08/29 00:40:00;;;;;;;0.50;0.50;;;17.20;99.90;;;;;;5031986;28;20234;-57
2022/08/29 00:42:26;;;;;;;0.55;0.50;;;17.30;99.90;;;;;;5033542;28;20199;-57
2022/08/29 00:44:52;;;;;;;0.77;0.57;;;17.20;99.90;;;;;;5033344;28;20234;-58
2022/08/29 00:47:21;;;;;;;0.47;0.45;;;17.10;99.90;;;;;;5033322;28;20525;-58
2022/08/29 00:49:51;;;;;;;0.50;0.50;;;17.10;99.90;;;;;;5033205;28;20207;-57
2022/08/29 00:52:27;;;;;;;0.50;0.45;;;17.00;99.90;;;;;;5033774;28;20262;-58
2022/08/29 00:54:55;;;;;;;0.47;0.40;;;17.00;99.90;;;;;;5033689;28;20178;-59
2022/08/29 00:57:22;;;;;;;0.57;0.40;;;16.90;99.90;;;;;;5033224;28;20282;-58
2022/08/29 00:59:50;;;;;;;1.42;0.80;;;17.00;99.90;;;;;;5033360;28;20180;-58
2022/08/29 01:02:16;;;;;;;0.30;0.30;;;17.00;99.90;;;;;;5033133;28;20870;-58
2022/08/29 01:04:42;;;;;;;0.38;0.38;;;16.90;99.90;;;;;;5032142;28;20172;-58
2022/08/29 01:07:10;;;;;;;0.65;0.60;;;16.90;99.90;;;;;;5033153;28;20622;-58
2022/08/29 01:09:37;;;;;;;1.02;0.40;;;16.90;99.90;;;;;;5033373;28;20172;-57
2022/08/29 01:12:18;;;;;;;0.95;0.80;;;16.90;99.90;;;;;;5036077;28;20203;-58
2022/08/29 01:14:52;;;;;;;0.50;0.50;;;16.90;99.90;;;;;;5036079;28;20168;-58
2022/08/29 01:17:25;;;;;;;1.42;1.02;;;16.80;99.90;;;;;;5037056;28;20179;-58
2022/08/29 01:20:08;;;;;;;0.60;0.60;;;16.80;99.90;;;;;;5037204;28;20179;-58
2022/08/29 01:22:51;;;;;;;0.50;0.50;;;16.80;99.90;;;;;;5037193;28;20218;-58
2022/08/29 01:25:21;;;;;;;0.57;0.50;;;16.80;99.90;;;;;;5037015;28;20168;-58
2022/08/29 01:28:00;;;;;;;0.90;0.63;;;16.70;99.90;;;;;;5036887;28;20219;-57
2022/08/29 01:30:26;;;;;;;0.68;0.52;;;16.80;99.90;;;;;;5035589;28;20215;-58
2022/08/29 01:32:52;;;;;;;0.63;0.47;;;16.80;99.90;;;;;;5036639;28;20211;-58
2022/08/29 01:35:18;;;;;;;0.55;0.50;;;16.80;99.90;;;;;;5037156;28;20180;-57
2022/08/29 01:37:43;;;;;;;0.43;0.40;;;16.80;99.90;;;;;;5035276;28;20266;-57
2022/08/29 01:40:11;;;;;;;0.95;0.65;;;16.70;99.90;;;;;;5035719;28;20219;-58
2022/08/29 01:42:37;;;;;;;0.73;0.68;;;16.70;99.90;;;;;;5036655;28;20225;-57
2022/08/29 01:45:04;;;;;;;0.57;0.57;;;16.70;99.90;;;;;;5036899;28;20180;-58
2022/08/29 01:47:34;;;;;;;0.50;0.50;;;16.70;99.90;;;;;;5035540;28;20172;-58
2022/08/29 01:50:00;;;;;;;0.55;0.55;;;16.70;99.90;;;;;;5036394;28;20172;-57
2022/08/29 01:52:26;;;;;;;0.50;0.50;;;16.60;99.90;;;;;;5036257;28;20573;-58
2022/08/29 01:54:52;;;;;;;0.50;0.50;;;16.60;99.90;;;;;;5036447;28;20271;-58
2022/08/29 01:57:18;;;;;;;0.88;0.50;;;16.70;99.90;;;;;;5036387;28;20301;-58
2022/08/29 01:59:44;;;;;;;0.55;0.55;;;16.60;99.90;;;;;;5036362;28;20186;-59
2022/08/29 02:02:15;;;;;;;0.47;0.47;;;16.60;99.90;;;;;;5036170;28;20172;-59
2022/08/29 02:04:42;;;;;;;0.60;0.60;;;16.50;99.90;;;;;;5036162;28;20259;-58
2022/08/29 02:07:08;;;;;;;0.60;0.60;;;16.50;99.90;;;;;;5034877;28;20267;-58
2022/08/29 02:09:34;;;;;;;0.30;0.30;;;16.50;99.90;;;;;;5036173;28;20266;-58
2022/08/29 02:12:03;;;;;;;0.40;0.40;;;16.40;99.90;;;;;;5036014;28;20665;-60
2022/08/29 02:14:29;;;;;;;0.55;0.50;;;16.40;99.90;;;;;;5035916;28;20183;-58
2022/08/29 02:16:55;;;;;;;0.70;0.50;;;16.40;99.90;;;;;;5035906;28;20179;-58
2022/08/29 02:19:21;;;;;;;0.30;0.30;;;16.20;99.90;;;;;;5034656;28;20180;-58
2022/08/29 02:21:46;;;;;;;0.40;0.40;;;16.30;99.90;;;;;;5034505;28;20261;-58
2022/08/29 02:24:12;;;;;;;0.55;0.55;;;16.40;99.90;;;;;;5035986;28;20713;-57
2022/08/29 02:26:38;;;;;;;0.60;0.60;;;16.50;99.90;;;;;;5035765;28;20234;-58
2022/08/29 02:29:04;;;;;;;0.47;0.47;;;16.50;99.90;;;;;;5034350;28;20211;-58
2022/08/29 02:31:29;;;;;;;0.38;0.38;;;16.50;99.90;;;;;;5035620;28;20687;-58
2022/08/29 02:33:56;;;;;;;0.60;0.60;;;16.40;99.90;;;;;;5035299;28;20251;-58
2022/08/29 02:36:22;;;;;;;0.47;0.40;;;16.40;99.90;;;;;;5035968;28;20168;-57
2022/08/29 02:38:48;;;;;;;0.30;0.30;;;16.30;99.90;;;;;;5034343;28;20180;-57
2022/08/29 02:41:14;;;;;;;0.55;0.52;;;16.30;99.90;;;;;;5035573;28;20637;-58
2022/08/29 02:43:41;;;;;;;0.57;0.57;;;16.30;99.90;;;;;;5035709;28;20179;-58
2022/08/29 02:46:07;;;;;;;0.65;0.43;;;16.30;99.90;;;;;;5035563;28;20199;-58
2022/08/29 02:48:33;;;;;;;0.65;0.55;;;16.30;99.90;;;;;;5034095;28;20200;-58
2022/08/29 02:50:59;;;;;;;0.85;0.60;;;16.30;99.90;;;;;;5034047;28;20686;-58
2022/08/29 02:53:27;;;;;;;0.75;0.50;;;16.40;99.90;;;;;;5050459;28;20216;-57
2022/08/29 02:55:53;;;;;;;0.60;0.60;;;16.40;99.90;;;;;;5034049;28;20180;-58
2022/08/29 02:58:20;;;;;;;0.85;0.40;;;16.40;99.90;;;;;;5050583;28;20830;-58
2022/08/29 03:00:46;;;;;;;0.52;0.52;;;16.40;99.90;;;;;;5033944;28;20165;-58
2022/08/29 03:03:11;;;;;;;1.00;0.85;;;16.30;99.90;;;;;;5034894;28;20591;-57
2022/08/29 03:05:38;;;;;;;0.52;0.52;;;16.30;99.90;;;;;;5034978;28;20182;-58
2022/08/29 03:08:07;;;;;;;0.50;0.50;;;16.20;99.90;;;;;;5035043;28;20172;-58
2022/08/29 03:10:33;;;;;;;0.68;0.68;;;16.30;99.90;;;;;;5034995;28;20207;-58
2022/08/29 03:12:59;;;;;;;0.82;0.38;;;16.30;99.90;;;;;;5034764;28;20208;-57
2022/08/29 03:15:25;;;;;;;0.60;0.60;;;16.30;99.90;;;;;;5033589;28;20588;-57
2022/08/29 03:17:51;;;;;;;0.57;0.57;;;16.30;99.90;;;;;;5034916;28;20180;-58
2022/08/29 03:20:19;;;;;;;0.85;0.68;;;16.20;99.90;;;;;;5034833;28;20176;-57
2022/08/29 03:22:46;;;;;;;1.30;0.88;;;16.20;99.90;;;;;;5033809;28;20180;-59
2022/08/29 03:25:13;;;;;;;0.50;0.50;;;16.20;99.90;;;;;;5034632;28;20177;-57
2022/08/29 03:27:39;;;;;;;1.48;0.70;;;16.10;99.90;;;;;;5034510;28;20165;-59
2022/08/29 03:30:08;;;;;;;0.40;0.40;;;16.10;99.90;;;;;;5034666;28;20262;-58
2022/08/29 03:32:33;;;;;;;0.95;0.65;;;16.10;99.90;;;;;;5034295;28;20211;-58
2022/08/29 03:34:59;;;;;;;0.70;0.60;;;16.10;99.90;;;;;;5034276;28;20179;-58
2022/08/29 03:37:26;;;;;;;1.08;0.80;;;16.10;99.90;;;;;;5034533;28;20187;-58
2022/08/29 03:39:52;;;;;;;1.05;0.90;;;16.00;99.90;;;;;;5033137;28;20530;-58
2022/08/29 03:42:18;;;;;;;0.75;0.70;;;16.10;99.90;;;;;;5034264;28;20184;-58
2022/08/29 03:44:44;;;;;;;0.63;0.57;;;16.10;99.90;;;;;;5033002;28;20203;-58
2022/08/29 03:47:09;;;;;;;0.70;0.70;;;16.00;99.90;;;;;;5034156;28;20183;-58
2022/08/29 03:49:35;;;;;;;0.65;0.65;;;16.00;99.90;;;;;;5033015;28;20188;-58
2022/08/29 03:52:02;;;;;;;0.65;0.57;;;16.00;99.90;;;;;;5032872;28;20224;-58
2022/08/29 03:54:28;;;;;;;0.80;0.60;;;16.00;99.90;;;;;;5034088;28;20172;-58
2022/08/29 03:56:55;;;;;;;0.63;0.63;;;16.00;99.90;;;;;;5016321;28;20168;-58
2022/08/29 03:59:21;;;;;;;0.40;0.40;;;16.00;99.90;;;;;;5016556;28;20188;-58
2022/08/29 04:01:48;;;;;;;1.80;0.70;;;15.90;99.90;;;;;;5032851;28;20168;-56
2022/08/29 04:07:05;;;;;;;1.10;0.80;;;15.90;99.90;;;;;;5034101;28;20211;-58
2022/08/29 04:09:31;;;;;;;0.73;0.55;;;16.00;99.90;;;;;;5033791;28;20279;-58
2022/08/29 04:11:58;;;;;;;0.75;0.63;;;15.90;99.90;;;;;;5033849;28;20183;-58
2022/08/29 04:14:24;;;;;;;0.60;0.60;;;15.90;99.90;;;;;;5033872;28;20538;-57
2022/08/29 04:16:50;;;;;;;0.93;0.93;;;15.90;99.90;;;;;;5032550;28;20211;-59
2022/08/29 04:19:17;;;;;;;0.82;0.63;;;15.90;99.90;;;;;;5032524;28;20192;-58
2022/08/29 04:21:44;;;;;;;1.27;0.68;;;15.80;99.90;;;;;;5033557;28;20206;-57
2022/08/29 04:24:11;;;;;;;1.23;0.50;;;15.80;99.90;;;;;;5033705;28;20168;-59
2022/08/29 04:26:37;;;;;;;0.90;0.70;;;15.80;99.90;;;;;;5032296;28;20170;-58
2022/08/29 04:29:04;;;;;;;0.82;0.80;;;15.80;99.90;;;;;;5032168;28;20196;-58
2022/08/29 04:31:30;;;;;;;0.93;0.60;;;15.70;99.90;;;;;;5033496;28;20172;-58
2022/08/29 04:33:56;;;;;;;0.70;0.70;;;15.70;99.90;;;;;;5032438;28;20687;-57
2022/08/29 04:36:21;;;;;;;0.57;0.57;;;15.70;99.90;;;;;;5032272;28;20183;-57
2022/08/29 04:38:47;;;;;;;2.60;0.88;;;15.70;99.90;;;;;;5033321;28;20183;-57
2022/08/29 04:41:13;;;;;;;0.82;0.82;;;15.60;99.90;;;;;;5032079;28;20172;-58
2022/08/29 04:43:40;;;;;;;4.47;0.77;;;15.60;99.90;;;;;;5032277;28;20207;-57
2022/08/29 04:46:06;;;;;;;0.95;0.82;;;15.70;99.90;;;;;;5032585;28;20177;-59
2022/08/29 04:48:31;;;;;;;1.15;0.90;;;15.60;99.90;;;;;;5032928;28;20266;-58
2022/08/29 04:51:00;;;;;;;2.53;0.90;;;15.60;99.90;;;;;;5033321;28;20537;-59
2022/08/29 04:53:27;;;;;;;1.80;1.00;;;15.70;99.90;;;;;;5031851;28;20239;-57
2022/08/29 04:56:03;;;;;;;1.27;1.17;;;15.60;99.90;;;;;;5033572;28;20218;-58
2022/08/29 04:58:29;;;;;;;1.15;0.90;;;15.70;99.90;;;;;;5033267;28;20176;-58
2022/08/29 05:00:55;;;;;;;1.42;1.08;;;15.60;99.90;;;;;;5033122;28;20262;-59
2022/08/29 05:03:22;;;;;;;1.52;0.93;;;15.60;99.90;;;;;;5031815;28;20231;-58
2022/08/29 05:06:05;;;;;;;1.58;1.17;;;15.70;99.90;;;;;;5032406;28;20250;-58
2022/08/29 05:08:31;;;;;;;1.75;0.80;;;15.60;99.90;;;;;;5032807;28;20184;-58
2022/08/29 05:10:57;;;;;;;1.48;0.90;;;15.60;99.90;;;;;;5014790;28;20195;-58
2022/08/29 05:13:23;;;;;;;1.23;1.13;;;15.60;99.90;;;;;;5031928;28;20211;-59
2022/08/29 05:15:49;;;;;;;1.45;0.80;;;15.60;99.90;;;;;;5031906;28;20254;-58
2022/08/29 05:18:19;;;;;;;0.85;0.80;;;15.60;99.90;;;;;;5033372;28;20172;-58
2022/08/29 05:20:47;;;;;;;0.60;0.60;;;15.60;99.90;;;;;;5032680;28;20175;-57
2022/08/29 05:23:14;;;;;;;0.80;0.70;;;15.60;99.90;;;;;;5033068;28;20572;-57
2022/08/29 05:25:40;;;;;;;1.55;1.15;;;15.60;99.90;;;;;;5033053;28;20180;-58
2022/08/29 05:28:06;;;;;;;1.13;0.90;;;15.60;99.90;;;;;;5031523;28;20226;-57
2022/08/29 05:30:32;;;;;;;1.02;0.90;;;15.70;99.90;;;;;;5031663;28;20180;-58
2022/08/29 05:32:59;;;;;;;1.27;0.90;;;15.70;99.90;;;;;;5032765;28;20223;-58
2022/08/29 05:35:25;;;;;;;1.27;1.17;;;15.80;99.90;;;;;;5031507;28;20179;-57
2022/08/29 05:37:51;;;;;;;0.88;0.70;;;15.80;99.90;;;;;;5032649;28;20526;-58
2022/08/29 05:40:17;;;;;;;1.50;1.00;;;15.70;99.90;;;;;;5031644;28;20267;-57
2022/08/29 05:42:42;;;;;;;1.45;0.93;;;15.70;99.90;;;;;;5032920;28;20529;-58
2022/08/29 05:45:09;;;;;;;1.13;1.02;;;15.80;99.90;;;;;;5032858;28;20541;-58
2022/08/29 05:47:35;;;;;;;2.17;0.77;;;15.70;99.90;;;;;;5032583;28;20191;-57
2022/08/29 05:50:01;;;;;;;1.90;0.80;;;15.80;99.90;;;;;;5032524;28;20180;-57
2022/08/29 05:52:28;;;;;;;0.98;0.85;;;15.90;99.90;;;;;;5031496;28;20203;-57
2022/08/29 05:54:53;;;;;;;1.92;0.90;;;15.90;99.90;;;;;;5032737;28;20184;-58
2022/08/29 05:57:21;;;;;;;1.25;0.95;;;16.00;99.90;;;;;;5034004;28;20226;-59
2022/08/29 05:59:49;;;;;;;1.00;0.90;;;16.10;99.90;;;;;;5036262;28;20589;-58
2022/08/29 06:02:17;;;;;;;2.28;0.90;;;16.00;99.90;;;;;;5036123;28;20183;-58
2022/08/29 06:04:43;;;;;;;1.45;0.93;;;16.10;99.90;;;;;;5035078;28;20672;-59
2022/08/29 06:07:09;;;;;;;1.80;1.05;;;16.20;99.90;;;;;;5036469;28;20660;-58
2022/08/29 06:09:37;;;;;;;0.70;0.68;;;16.30;99.90;;;;;;5035000;28;20176;-58
2022/08/29 06:12:04;;;;;;;1.20;1.00;;;16.30;99.90;;;;;;5035986;28;20270;-58
2022/08/29 06:14:31;;;;;;;1.23;1.10;;;16.30;99.90;;;;;;5035855;28;20179;-58
2022/08/29 06:16:56;;;;;;;1.13;1.00;;;16.30;99.90;;;;;;5035893;28;20244;-58
2022/08/29 06:19:23;;;;;;;1.45;1.10;;;16.40;99.90;;;;;;5034896;28;20693;-58
2022/08/29 06:21:49;;;;;;;1.10;1.00;;;16.40;99.90;;;;;;5034820;28;20176;-59
2022/08/29 06:24:15;;;;;;;1.48;1.15;;;16.50;99.90;;;;;;5035286;28;20180;-58
2022/08/29 06:26:43;;;;;;;1.20;1.10;;;16.50;99.90;;;;;;5035576;28;20222;-59
2022/08/29 06:29:09;;;;;;;0.93;0.82;;;16.70;99.90;;;;;;5035915;28;20643;-59
2022/08/29 06:31:35;;;;;;;1.48;0.90;;;16.70;99.90;;;;;;5035507;28;20184;-58
2022/08/29 06:34:04;;;;;;;1.15;1.02;;;16.80;99.90;;;;;;5034497;28;20239;-59
2022/08/29 06:36:30;;;;;;;0.80;0.80;;;16.70;99.90;;;;;;5035189;28;20176;-59
2022/08/29 06:38:58;;;;;;;0.90;0.80;;;16.80;99.90;;;;;;5035701;28;20207;-59
2022/08/29 06:41:25;;;;;;;0.93;0.85;;;16.80;99.90;;;;;;5035463;28;20247;-59
2022/08/29 06:43:51;;;;;;;1.65;0.82;;;16.90;99.90;;;;;;5034165;28;20229;-58
2022/08/29 06:46:38;;;;;;;0.93;0.80;;;16.90;99.90;;;;;;5035307;28;20540;-58
2022/08/29 06:49:06;;;;;;;1.38;1.17;;;17.10;99.90;;;;;;5035495;28;20222;-59
2022/08/29 06:51:34;;;;;;;1.13;0.70;;;17.20;99.90;;;;;;5035323;28;20172;-59
2022/08/29 06:54:01;;;;;;;0.98;0.88;;;17.10;99.90;;;;;;5035099;28;20222;-58
2022/08/29 06:56:28;;;;;;;1.17;0.80;;;17.20;99.90;;;;;;5035376;28;20340;-58
2022/08/29 06:58:53;;;;;;;1.20;1.10;;;17.40;99.90;;;;;;5035370;28;20206;-58
2022/08/29 07:01:20;;;;;;;0.90;0.85;;;17.50;99.90;;;;;;5034076;28;20729;-58
2022/08/29 07:03:46;;;;;;;1.35;1.10;;;17.50;99.90;;;;;;5035248;28;20200;-59
2022/08/29 07:06:12;;;;;;;0.85;0.80;;;17.50;99.90;;;;;;5035094;28;20192;-59
2022/08/29 07:08:39;;;;;;;0.70;0.70;;;17.60;99.90;;;;;;5032856;28;20329;-59
2022/08/29 07:11:05;;;;;;;1.88;0.90;;;17.80;99.90;;;;;;5033584;28;20203;-58
2022/08/29 07:13:31;;;;;;;1.60;1.30;;;17.70;99.90;;;;;;5034911;28;20246;-58
2022/08/29 07:15:56;;;;;;;2.33;0.80;;;17.70;99.90;;;;;;5034825;28;20179;-58
2022/08/29 07:18:22;;;;;;;1.20;1.10;;;17.60;99.90;;;;;;5050245;28;20176;-59
2022/08/29 07:20:48;;;;;;;2.80;0.90;;;17.60;99.90;;;;;;5033439;28;20180;-58
2022/08/29 07:23:14;;;;;;;1.33;0.95;;;17.50;99.90;;;;;;5034783;28;20186;-59
2022/08/29 07:25:40;;;;;;;1.02;0.73;;;17.50;99.90;;;;;;5034861;28;20172;-58
2022/08/29 07:28:06;;;;;;;0.98;0.75;;;17.60;99.90;;;;;;5034777;28;20192;-59
2022/08/29 07:30:32;;;;;;;0.93;0.57;;;17.70;99.90;;;;;;5034500;28;20172;-59
2022/08/29 07:32:58;;;;;;;1.60;1.10;;;17.60;99.90;;;;;;5034410;28;20542;-59
2022/08/29 07:35:24;;;;;;;0.82;0.70;;;17.60;99.90;;;;;;5049814;28;20176;-59
2022/08/29 07:38:00;;;;;;;1.38;1.02;;;17.80;99.90;;;;;;5034440;28;20175;-59
2022/08/29 07:40:26;;;;;;;2.22;0.90;;;18.00;99.90;;;;;;5034296;28;20176;-58
2022/08/29 07:42:52;;;;;;;0.75;0.70;;;18.10;99.90;;;;;;5034458;28;20187;-58
2022/08/29 07:45:18;;;;;;;0.80;0.70;;;18.20;99.90;;;;;;5034330;28;20180;-58
2022/08/29 07:47:44;;;;;;;0.85;0.85;;;18.20;99.90;;;;;;5034353;28;20572;-58
2022/08/29 07:50:12;;;;;;;1.00;0.75;;;18.10;99.90;;;;;;5034264;28;20168;-58
2022/08/29 07:52:39;;;;;;;1.60;0.80;;;18.40;99.90;;;;;;5032864;28;20413;-58
2022/08/29 07:55:05;;;;;;;1.05;0.75;;;18.70;99.90;;;;;;5034049;28;20656;-60
2022/08/29 07:57:31;;;;;;;0.85;0.68;;;18.90;99.90;;;;;;5034014;28;20288;-58
2022/08/29 07:59:57;;;;;;;1.92;0.60;;;18.80;99.90;;;;;;5034119;28;20263;-58
2022/08/29 08:02:22;;;;;;;0.73;0.50;;;19.00;99.90;;;;;;5033830;28;20180;-58
2022/08/29 08:04:48;;;;;;;1.35;0.63;;;19.00;99.90;;;;;;5033950;28;20176;-58
2022/08/29 08:07:14;;;;;;;0.60;0.55;;;19.10;99.90;;;;;;5033809;28;20221;-58
2022/08/29 08:09:39;;;;;;;0.60;0.57;;;18.90;99.90;;;;;;5033810;28;20182;-59
2022/08/29 08:12:06;;;;;;;0.95;0.70;;;19.10;99.70;;;;;;5032713;28;20184;-58
2022/08/29 08:14:33;;;;;;;0.47;0.47;;;19.20;99.80;;;;;;5033846;28;20641;-58
2022/08/29 08:16:59;;;;;;;2.42;0.80;;;19.50;99.20;;;;;;5032796;28;20176;-59
2022/08/29 08:19:25;;;;;;;1.58;0.60;;;19.60;98.50;;;;;;5033395;28;20176;-58
2022/08/29 08:21:51;;;;;;;1.08;0.65;;;19.90;98.40;;;;;;5033428;28;20176;-59
2022/08/29 08:24:20;;;;;;;0.93;0.60;;;20.00;97.50;;;;;;5034076;28;20184;-58
2022/08/29 08:26:47;;;;;;;0.98;0.65;;;20.10;97.90;;;;;;5033711;28;20278;-58
2022/08/29 08:29:13;;;;;;;1.15;0.80;;;20.30;97.10;;;;;;5032157;28;20259;-58
2022/08/29 08:31:48;;;;;;;1.20;0.88;;;20.30;96.40;;;;;;5033525;28;20259;-59
2022/08/29 08:34:14;;;;;;;1.63;0.90;;;20.50;96.50;;;;;;5033375;28;20187;-58
2022/08/29 08:36:41;;;;;;;2.80;0.90;;;20.60;96.20;;;;;;5015705;28;20192;-59
2022/08/29 08:39:07;;;;;;;0.93;0.80;;;20.70;95.20;;;;;;5033428;28;20176;-58
2022/08/29 08:42:24;;;;;;;1.25;0.93;;;20.50;95.70;;;;;;5032281;28;20187;-57
2022/08/29 08:45:15;;;;;;;1.48;1.10;;;20.70;95.20;;;;;;5021079;28;20185;-59
2022/08/29 08:47:50;;;;;;;1.15;0.60;;;20.70;94.70;;;;;;5033441;28;20171;-58
2022/08/29 08:50:32;;;;;;;0.95;0.90;;;20.80;95.60;;;;;;5033474;28;20195;-59
2022/08/29 08:53:16;;;;;;;1.80;0.90;;;21.00;95.00;;;;;;5033175;28;20211;-59
2022/08/29 08:55:54;;;;;;;1.02;0.85;;;21.20;94.90;;;;;;5033569;28;20171;-59
2022/08/29 08:58:47;;;;;;;1.08;0.85;;;21.20;94.30;;;;;;5033214;28;20184;-59
2022/08/29 09:01:21;;;;;;;2.10;0.90;;;21.10;93.90;;;;;;5033144;28;20182;-58
2022/08/29 09:03:55;;;;;;;1.65;0.85;;;20.80;94.10;;;;;;5033078;28;20699;-58
2022/08/29 09:06:31;;;;;;;1.20;0.80;;;20.60;94.50;;;;;;5033321;28;20168;-58
2022/08/29 09:09:19;;;;;;;1.50;0.90;;;20.80;94.60;;;;;;5033116;28;20179;-58
2022/08/29 09:11:56;;;;;;;1.98;1.02;;;20.90;93.80;;;;;;5033104;28;20172;-59
2022/08/29 09:14:32;;;;;;;1.65;0.93;;;21.00;93.70;;;;;;5033793;28;20255;-58
2022/08/29 09:17:00;;;;;;;1.48;1.05;;;20.80;93.80;;;;;;5033212;28;20179;-59
2022/08/29 09:19:26;;;;;;;1.38;0.70;;;21.20;94.00;;;;;;5033068;28;20569;-59
2022/08/29 09:21:57;;;;;;;1.30;0.80;;;21.20;93.70;;;;;;5031841;28;20176;-58
2022/08/29 09:24:43;;;;;;;1.88;0.88;;;21.00;93.40;;;;;;5032941;28;20176;-59
2022/08/29 09:27:27;;;;;;;1.48;0.77;;;21.20;93.20;;;;;;5031816;28;20195;-58
2022/08/29 09:30:08;;;;;;;1.77;1.10;;;21.20;93.00;;;;;;5032654;28;20199;-58
2022/08/29 09:32:49;;;;;;;1.25;0.90;;;21.20;93.20;;;;;;5034713;28;20210;-59
2022/08/29 09:35:23;;;;;;;1.23;0.95;;;21.50;94.10;;;;;;5035680;28;20180;-58
2022/08/29 09:38:17;;;;;;;2.17;1.00;;;21.70;92.90;;;;;;5036790;28;20176;-59
2022/08/29 09:40:56;;;;;;;1.23;0.90;;;21.80;92.70;;;;;;5035714;28;20263;-59
2022/08/29 09:43:24;;;;;;;0.90;0.70;;;21.70;92.60;;;;;;5036569;28;20671;-58
2022/08/29 09:46:15;;;;;;;2.22;0.90;;;21.60;92.30;;;;;;5035597;28;20172;-58
2022/08/29 09:48:45;;;;;;;1.83;0.98;;;21.40;92.50;;;;;;5036760;28;20176;-60
2022/08/29 09:51:29;;;;;;;2.35;0.80;;;21.70;92.50;;;;;;5036307;28;20164;-58
2022/08/29 09:54:14;;;;;;;5.10;1.10;;;22.20;92.30;;;;;;5036496;28;20208;-59
2022/08/29 09:56:52;;;;;;;2.70;1.10;;;22.40;91.60;;;;;;5036417;28;20250;-58
2022/08/29 09:59:32;;;;;;;2.63;0.70;;;22.50;91.90;;;;;;5035215;28;20184;-59
2022/08/29 10:02:43;;;;;;;1.95;0.85;;;22.60;91.60;;;;;;5035994;28;20179;-59
2022/08/29 10:05:30;;;;;;;1.23;0.73;;;22.50;91.80;;;;;;5033835;28;20187;-59
2022/08/29 10:07:56;;;;;;;1.92;0.85;;;22.60;91.30;;;;;;5034974;28;20176;-59
2022/08/29 10:10:29;;;;;;;1.10;0.73;;;22.60;90.80;;;;;;5035923;28;20184;-60
2022/08/29 10:13:10;;;;;;;3.05;1.10;;;22.70;91.50;;;;;;5036034;28;20743;-59
2022/08/29 10:15:47;;;;;;;0.55;0.50;;;22.60;90.50;;;;;;5036091;28;20267;-59
2022/08/29 10:18:26;;;;;;;1.42;0.63;;;22.60;91.00;;;;;;5036080;28;20621;-59
2022/08/29 10:21:11;;;;;;;1.10;0.63;;;22.30;91.00;;;;;;5035732;28;20675;-58
2022/08/29 10:23:48;;;;;;;2.15;1.00;;;22.40;90.80;;;;;;5035917;28;20164;-58
2022/08/29 10:26:52;;;;;;;1.30;0.77;;;22.80;91.10;;;;;;5035970;28;20625;-59
2022/08/29 10:29:28;;;;;;;1.90;0.90;;;22.70;90.30;;;;;;5035845;28;20769;-58
2022/08/29 10:31:54;;;;;;;1.17;0.80;;;22.70;90.60;;;;;;5035864;28;20176;-57
2022/08/29 10:34:41;;;;;;;1.05;0.70;;;22.60;90.40;;;;;;5035656;28;20700;-58
2022/08/29 10:37:22;;;;;;;1.52;0.75;;;22.80;90.60;;;;;;5035601;28;20172;-58
2022/08/29 10:40:00;;;;;;;1.65;0.60;;;22.60;90.60;;;;;;5035636;28;20168;-59
2022/08/29 10:42:31;;;;;;;0.60;0.60;;;22.90;90.80;;;;;;5035631;28;20172;-59
2022/08/29 10:45:25;;;;;;;1.88;0.98;;;22.90;90.20;;;;;;5034473;28;20616;-58
2022/08/29 10:48:01;;;;;;;0.65;0.63;;;22.80;90.30;;;;;;5035368;28;20658;-59
2022/08/29 10:50:45;;;;;;;0.90;0.73;;;22.80;90.50;;;;;;5035506;28;20184;-59
2022/08/29 10:53:20;;;;;;;1.00;0.80;;;23.00;90.60;;;;;;5035371;28;20206;-59
2022/08/29 10:55:49;;;;;;;1.15;0.90;;;22.80;90.60;;;;;;5035325;28;20176;-58
2022/08/29 10:58:32;;;;;;;1.38;0.60;;;22.70;90.30;;;;;;5035129;28;20187;-58
2022/08/29 11:01:14;;;;;;;0.95;0.60;;;22.80;90.50;;;;;;5035338;28;20180;-59
2022/08/29 11:03:48;;;;;;;1.80;0.90;;;23.10;90.30;;;;;;5033805;28;20183;-58
2022/08/29 11:06:22;;;;;;;1.02;0.73;;;22.90;90.10;;;;;;5035030;28;20167;-58
2022/08/29 11:09:01;;;;;;;1.17;0.70;;;22.70;90.20;;;;;;5035008;28;20171;-58
2022/08/29 11:11:29;;;;;;;1.85;1.20;;;22.90;90.20;;;;;;5035091;28;20171;-58
2022/08/29 11:14:00;;;;;;;3.40;0.90;;;22.80;90.40;;;;;;5034857;28;20206;-59
2022/08/29 11:16:35;;;;;;;1.25;0.70;;;23.00;90.20;;;;;;5034870;28;20183;-60
2022/08/29 11:19:12;;;;;;;1.45;1.00;;;22.90;90.00;;;;;;5034724;28;20167;-60
2022/08/29 11:21:47;;;;;;;1.90;0.70;;;22.80;90.10;;;;;;5034883;28;20394;-59
2022/08/29 11:24:15;;;;;;;1.30;0.80;;;22.70;89.70;;;;;;5034680;28;20172;-59
2022/08/29 11:26:44;;;;;;;2.17;0.90;;;22.90;90.30;;;;;;5034621;28;20246;-58
2022/08/29 11:29:52;;;;;;;1.15;0.80;;;23.00;90.20;;;;;;5034336;28;20274;-59
2022/08/29 11:32:29;;;;;;;1.38;0.63;;;23.00;89.80;;;;;;5034473;28;20203;-59
2022/08/29 11:35:22;;;;;;;1.38;0.70;;;23.20;90.10;;;;;;5050042;28;20207;-59
2022/08/29 11:38:09;;;;;;;1.95;1.13;;;23.20;89.60;;;;;;5034372;28;20202;-60
2022/08/29 11:40:55;;;;;;;1.85;0.80;;;23.20;90.20;;;;;;5034552;28;20194;-58
2022/08/29 11:43:29;;;;;;;1.10;0.90;;;23.40;89.20;;;;;;5034343;28;20194;-59
2022/08/29 11:46:04;;;;;;;1.58;0.80;;;23.60;89.10;;;;;;5034346;28;20179;-59
2022/08/29 11:48:37;;;;;;;0.95;0.80;;;23.50;88.40;;;;;;5034468;28;20183;-58
2022/08/29 11:51:36;;;;;;;1.48;0.85;;;23.40;88.30;;;;;;5034328;28;20175;-58
2022/08/29 11:54:23;;;;;;;1.20;0.85;;;23.30;89.10;;;;;;5033952;28;20231;-59
2022/08/29 11:57:01;;;;;;;1.20;1.00;;;23.20;89.40;;;;;;5034028;28;20265;-58
2022/08/29 11:59:48;;;;;;;1.08;0.80;;;23.30;88.90;;;;;;5033883;28;20180;-59
2022/08/29 12:02:29;;;;;;;1.25;0.60;;;23.30;89.30;;;;;;5033975;28;20653;-59
2022/08/29 12:05:13;;;;;;;0.68;0.60;;;23.30;89.50;;;;;;5033786;28;20528;-58
2022/08/29 12:07:58;;;;;;;1.02;0.68;;;23.50;88.50;;;;;;5032779;28;20180;-59
2022/08/29 12:10:58;;;;;;;1.52;0.75;;;23.60;88.30;;;;;;5049198;28;20537;-58
2022/08/29 12:13:47;;;;;;;0.98;0.82;;;23.60;88.00;;;;;;5033942;28;20199;-58
2022/08/29 12:16:16;;;;;;;1.27;0.75;;;23.60;88.30;;;;;;5030303;28;20180;-59
2022/08/29 12:18:56;;;;;;;1.27;0.80;;;23.70;86.10;;;;;;5033795;28;20172;-58
2022/08/29 12:21:32;;;;;;;1.08;0.80;;;23.70;87.20;;;;;;5033575;28;20233;-58
2022/08/29 12:23:58;;;;;;;1.48;0.90;;;23.70;86.60;;;;;;5033790;28;20175;-58
2022/08/29 12:26:44;;;;;;;1.65;0.82;;;23.60;88.20;;;;;;5033619;28;20172;-57
2022/08/29 12:29:20;;;;;;;0.98;0.63;;;23.90;88.10;;;;;;5033425;28;20282;-59
2022/08/29 12:32:23;;;;;;;1.23;0.82;;;23.40;87.60;;;;;;5033486;28;20178;-59
2022/08/29 12:35:21;;;;;;;1.75;0.88;;;23.60;88.10;;;;;;5033419;28;20206;-56
2022/08/29 12:38:05;;;;;;;1.75;0.90;;;23.60;87.60;;;;;;5021346;28;20188;-58
2022/08/29 12:40:43;;;;;;;1.30;0.65;;;23.60;86.30;;;;;;5033315;28;20599;-59
2022/08/29 12:43:12;;;;;;;1.55;0.80;;;23.60;86.80;;;;;;5032032;28;20237;-59
2022/08/29 12:45:42;;;;;;;2.00;0.88;;;23.60;87.40;;;;;;5033343;28;20311;-59
2022/08/29 12:48:14;;;;;;;1.52;0.75;;;23.80;88.10;;;;;;5033357;28;20183;-59
2022/08/29 12:50:44;;;;;;;1.17;1.02;;;23.50;86.50;;;;;;5033103;28;20172;-58
2022/08/29 12:53:35;;;;;;;3.45;0.75;;;23.50;86.50;;;;;;5033226;28;20209;-58
2022/08/29 12:56:21;;;;;;;0.95;0.60;;;23.60;86.70;;;;;;5033249;28;20179;-58
2022/08/29 12:58:59;;;;;;;1.08;0.77;;;23.60;87.40;;;;;;5033417;28;20237;-59
2022/08/29 13:01:24;;;;;;;1.27;0.80;;;23.60;87.10;;;;;;5033171;28;20629;-58
2022/08/29 13:04:09;;;;;;;1.35;0.93;;;23.70;86.60;;;;;;5033277;28;20183;-58
2022/08/29 13:06:35;;;;;;;1.42;0.75;;;23.60;84.60;;;;;;5033580;28;20172;-58
2022/08/29 13:09:01;;;;;;;1.05;0.75;;;23.60;86.00;;;;;;5037179;28;20218;-58
2022/08/29 13:11:29;;;;;;;0.90;0.70;;;23.60;85.40;;;;;;5037069;28;20183;-59